Time;durP1;ratioP1;P1;durP2;ratioP2;P2;SDS_P1;SDS_P2;PMS_P1;PMS_P2;Temp;Humidity;BMP_temperature;BMP_pressure;BME280_temperature;BME280_humidity;BME280_pressure;Samples;Min_cycle;Max_cycle;Signal;HPM_P1;HPM_P2
2021/03/30 00:00:27;;;;;;;8.90;2.80;;;;;;;;;;4998089;28;20120;-84
2021/03/30 00:03:12;;;;;;;9.00;4.30;;;;;;;;;;4989983;28;20101;-84
2021/03/30 00:05:58;;;;;;;8.20;3.50;;;;;;;;;;4987104;28;20049;-84
2021/03/30 00:08:43;;;;;;;6.85;3.10;;;;;;;;;;4990481;28;20037;-84
2021/03/30 00:11:28;;;;;;;7.95;4.25;;;;;;;;;;4989359;28;20385;-84
2021/03/30 00:14:13;;;;;;;5.53;3.10;;;;;;;;;;4999352;28;20030;-84
2021/03/30 00:16:59;;;;;;;8.45;3.50;;;;;;;;;;4989686;28;20061;-85
2021/03/30 00:19:44;;;;;;;9.10;3.20;;;;;;;;;;4991733;28;20117;-84
2021/03/30 00:22:29;;;;;;;9.98;4.10;;;;;;;;;;4990752;28;20018;-84
2021/03/30 00:25:14;;;;;;;7.38;3.50;;;;;;;;;;4990028;28;20027;-84
2021/03/30 00:28:00;;;;;;;6.85;3.20;;;;;;;;;;4977941;28;20031;-84
2021/03/30 00:30:45;;;;;;;6.60;2.58;;;;;;;;;;4999366;28;20495;-85
2021/03/30 00:33:30;;;;;;;9.88;3.75;;;;;;;;;;4999987;28;20038;-84
2021/03/30 00:36:15;;;;;;;7.75;4.40;;;;;;;;;;4990204;28;20034;-85
2021/03/30 00:39:01;;;;;;;7.00;3.45;;;;;;;;;;4999776;28;20500;-84
2021/03/30 00:41:46;;;;;;;8.57;3.30;;;;;;;;;;4989467;28;20045;-84
2021/03/30 00:44:31;;;;;;;8.63;3.40;;;;;;;;;;4983871;28;20516;-84
2021/03/30 00:47:18;;;;;;;8.77;3.40;;;;;;;;;;4996990;28;20472;-84
2021/03/30 00:50:05;;;;;;;11.15;3.78;;;;;;;;;;4983268;28;20103;-84
2021/03/30 00:52:51;;;;;;;8.10;3.67;;;;;;;;;;4999245;28;20031;-84
2021/03/30 00:55:36;;;;;;;12.02;3.10;;;;;;;;;;4984066;28;20388;-84
2021/03/30 00:58:21;;;;;;;9.05;3.10;;;;;;;;;;4994758;28;20038;-84
2021/03/30 01:01:06;;;;;;;8.05;3.90;;;;;;;;;;4985017;28;20129;-86
2021/03/30 01:03:52;;;;;;;7.07;2.97;;;;;;;;;;5007558;28;20037;-85
2021/03/30 01:06:37;;;;;;;9.68;3.13;;;;;;;;;;4988603;28;20056;-84
2021/03/30 01:09:28;;;;;;;6.72;2.80;;;;;;;;;;4985667;28;20149;-85
2021/03/30 01:12:46;;;;;;;5.43;2.47;;;;;;;;;;4988845;28;20649;-85
2021/03/30 01:15:37;;;;;;;8.07;2.92;;;;;;;;;;4961473;28;20037;-85
2021/03/30 01:18:27;;;;;;;5.60;2.80;;;;;;;;;;4989869;28;20129;-85
2021/03/30 01:21:13;;;;;;;9.48;3.00;;;;;;;;;;4992929;28;20030;-85
2021/03/30 01:24:04;;;;;;;5.88;3.35;;;;;;;;;;4998653;28;20033;-85
2021/03/30 01:26:49;;;;;;;8.38;2.88;;;;;;;;;;4981461;28;20477;-85
2021/03/30 01:29:39;;;;;;;8.32;2.95;;;;;;;;;;5004236;28;20100;-82
2021/03/30 01:32:33;;;;;;;6.03;2.90;;;;;;;;;;4974026;28;20120;-85
2021/03/30 01:35:21;;;;;;;8.45;3.13;;;;;;;;;;4998520;28;20266;-83
2021/03/30 01:38:07;;;;;;;5.57;2.70;;;;;;;;;;4989189;28;20508;-85
2021/03/30 01:40:53;;;;;;;8.55;3.72;;;;;;;;;;4993669;28;20087;-85
2021/03/30 01:43:41;;;;;;;6.28;2.97;;;;;;;;;;4983124;28;20034;-85
2021/03/30 01:46:29;;;;;;;5.38;3.30;;;;;;;;;;4989542;28;20030;-85
2021/03/30 01:49:15;;;;;;;6.70;2.90;;;;;;;;;;5003066;28;20153;-86
2021/03/30 01:52:00;;;;;;;8.30;3.20;;;;;;;;;;5002067;28;20041;-85
2021/03/30 01:54:46;;;;;;;5.53;2.97;;;;;;;;;;4990340;28;20079;-85
2021/03/30 01:57:32;;;;;;;8.82;3.33;;;;;;;;;;4997654;28;20078;-84
2021/03/30 02:00:18;;;;;;;10.82;3.45;;;;;;;;;;4999533;28;20065;-84
2021/03/30 02:03:05;;;;;;;13.57;3.80;;;;;;;;;;4972603;28;20357;-85
2021/03/30 02:05:52;;;;;;;10.38;2.92;;;;;;;;;;4999712;28;20397;-84
2021/03/30 02:08:38;;;;;;;6.90;2.78;;;;;;;;;;4986649;28;20121;-84
2021/03/30 02:11:29;;;;;;;4.82;2.50;;;;;;;;;;4981783;28;20026;-85
2021/03/30 02:14:14;;;;;;;6.53;2.85;;;;;;;;;;4978904;28;20034;-84
2021/03/30 02:17:04;;;;;;;11.65;3.30;;;;;;;;;;4988708;28;20038;-85
2021/03/30 02:20:02;;;;;;;10.13;2.90;;;;;;;;;;4978717;28;20022;-84
2021/03/30 02:22:50;;;;;;;9.45;3.08;;;;;;;;;;4983488;28;20086;-84
2021/03/30 02:25:36;;;;;;;7.72;2.90;;;;;;;;;;5001193;28;20042;-84
2021/03/30 02:28:24;;;;;;;8.85;2.95;;;;;;;;;;4986730;28;20030;-85
2021/03/30 02:31:12;;;;;;;7.85;3.70;;;;;;;;;;5002580;28;20037;-86
2021/03/30 02:33:59;;;;;;;8.55;2.83;;;;;;;;;;4983059;28;20515;-85
2021/03/30 02:36:45;;;;;;;8.30;2.92;;;;;;;;;;4983087;28;20035;-85
2021/03/30 02:39:31;;;;;;;4.50;2.70;;;;;;;;;;4988424;28;20029;-84
2021/03/30 02:42:18;;;;;;;7.22;3.20;;;;;;;;;;5000111;28;20452;-84
2021/03/30 02:45:04;;;;;;;8.07;2.63;;;;;;;;;;5004507;28;20466;-85
2021/03/30 02:47:50;;;;;;;8.35;2.90;;;;;;;;;;5001481;28;20077;-84
2021/03/30 02:50:36;;;;;;;6.28;2.88;;;;;;;;;;5003666;28;20068;-85
2021/03/30 02:53:21;;;;;;;10.40;2.97;;;;;;;;;;4975859;28;20089;-84
2021/03/30 02:56:07;;;;;;;6.25;2.83;;;;;;;;;;4984553;28;20449;-84
2021/03/30 02:58:53;;;;;;;7.75;2.85;;;;;;;;;;4991283;28;20460;-83
2021/03/30 03:01:38;;;;;;;7.30;2.88;;;;;;;;;;4992029;28;20100;-84
2021/03/30 03:04:25;;;;;;;9.55;3.10;;;;;;;;;;4994435;28;20045;-84
2021/03/30 03:07:10;;;;;;;10.10;3.55;;;;;;;;;;5000396;28;20038;-83
2021/03/30 03:09:58;;;;;;;7.50;2.78;;;;;;;;;;4984118;28;20027;-83
2021/03/30 03:12:44;;;;;;;11.77;2.83;;;;;;;;;;4981539;28;20096;-83
2021/03/30 03:15:30;;;;;;;16.92;3.90;;;;;;;;;;4984380;28;20027;-84
2021/03/30 03:18:16;;;;;;;7.85;3.03;;;;;;;;;;4996901;28;20038;-82
2021/03/30 03:21:01;;;;;;;8.98;3.03;;;;;;;;;;4986450;28;20034;-85
2021/03/30 03:23:46;;;;;;;8.55;2.95;;;;;;;;;;4990529;28;20045;-85
2021/03/30 03:26:32;;;;;;;6.85;3.30;;;;;;;;;;4988973;28;20026;-84
2021/03/30 03:29:19;;;;;;;6.22;3.42;;;;;;;;;;4984859;28;20033;-82
2021/03/30 03:32:05;;;;;;;9.52;3.38;;;;;;;;;;4986192;28;20094;-82
2021/03/30 03:34:50;;;;;;;7.32;2.90;;;;;;;;;;4993526;28;20089;-83
2021/03/30 03:37:42;;;;;;;8.50;3.35;;;;;;;;;;4993051;28;20028;-83
2021/03/30 03:40:28;;;;;;;8.38;2.97;;;;;;;;;;4986119;28;20025;-84
2021/03/30 03:43:13;;;;;;;6.47;3.38;;;;;;;;;;4987881;28;20404;-83
2021/03/30 03:45:58;;;;;;;11.82;3.22;;;;;;;;;;4990998;28;20098;-85
2021/03/30 03:48:44;;;;;;;9.60;2.70;;;;;;;;;;4992037;28;20022;-87
2021/03/30 03:51:32;;;;;;;7.20;2.95;;;;;;;;;;5003511;28;20452;-84
2021/03/30 03:54:19;;;;;;;7.65;3.17;;;;;;;;;;4989472;28;20332;-85
2021/03/30 03:57:09;;;;;;;10.95;3.15;;;;;;;;;;5000318;28;20030;-84
2021/03/30 03:59:55;;;;;;;;;;;;;;;;;;4989309;28;20694;-85
2021/03/30 04:02:43;;;;;;;6.93;3.20;;;;;;;;;;4994876;28;20450;-85
2021/03/30 04:05:39;;;;;;;12.55;3.08;;;;;;;;;;4991833;28;20350;-84
2021/03/30 04:08:26;;;;;;;8.05;4.00;;;;;;;;;;4991930;28;20073;-84
2021/03/30 04:11:11;;;;;;;7.78;3.13;;;;;;;;;;5002405;28;20037;-85
2021/03/30 04:13:58;;;;;;;8.98;3.10;;;;;;;;;;4988127;28;20424;-83
2021/03/30 04:16:43;;;;;;;7.85;3.22;;;;;;;;;;4987376;28;21213;-84
2021/03/30 04:19:28;;;;;;;10.52;3.45;;;;;;;;;;5008369;28;20587;-85
2021/03/30 04:22:15;;;;;;;10.68;3.83;;;;;;;;;;5003777;28;20377;-83
2021/03/30 04:25:00;;;;;;;6.88;3.42;;;;;;;;;;5002072;28;20046;-84
2021/03/30 04:27:46;;;;;;;6.60;3.05;;;;;;;;;;4988590;28;20019;-84
2021/03/30 04:30:31;;;;;;;10.65;3.47;;;;;;;;;;5002575;28;20070;-84
2021/03/30 04:33:16;;;;;;;12.25;3.65;;;;;;;;;;4985449;28;20036;-84
2021/03/30 04:36:02;;;;;;;8.48;3.38;;;;;;;;;;4990060;28;20152;-84
2021/03/30 04:38:47;;;;;;;9.43;3.65;;;;;;;;;;4988657;28;20015;-84
2021/03/30 04:41:32;;;;;;;9.80;3.08;;;;;;;;;;4985212;28;20451;-85
2021/03/30 04:44:18;;;;;;;13.45;4.88;;;;;;;;;;4988928;28;20030;-85
2021/03/30 04:47:03;;;;;;;8.18;3.70;;;;;;;;;;5001589;28;20030;-85
2021/03/30 04:49:48;;;;;;;8.93;4.30;;;;;;;;;;5003445;28;20111;-84
2021/03/30 04:52:34;;;;;;;11.77;3.53;;;;;;;;;;5001563;28;20026;-84
2021/03/30 04:55:20;;;;;;;8.45;4.30;;;;;;;;;;4992860;28;20115;-85
2021/03/30 04:58:05;;;;;;;7.63;3.50;;;;;;;;;;4990315;28;20424;-84
2021/03/30 05:00:50;;;;;;;8.25;3.63;;;;;;;;;;4990178;28;20061;-84
2021/03/30 05:03:35;;;;;;;9.70;3.40;;;;;;;;;;4986381;28;20026;-85
2021/03/30 05:06:21;;;;;;;10.05;3.53;;;;;;;;;;4999109;28;20074;-85
2021/03/30 05:09:06;;;;;;;10.40;4.78;;;;;;;;;;4988812;28;20025;-85
2021/03/30 05:11:51;;;;;;;11.27;4.35;;;;;;;;;;5002050;28;20023;-85
2021/03/30 05:14:36;;;;;;;9.05;4.32;;;;;;;;;;4987507;28;20038;-85
2021/03/30 05:17:22;;;;;;;10.68;4.25;;;;;;;;;;4997724;28;20034;-85
2021/03/30 05:20:07;;;;;;;11.13;3.75;;;;;;;;;;5007536;28;20104;-86
2021/03/30 05:22:52;;;;;;;9.90;3.78;;;;;;;;;;4990640;28;20015;-83
2021/03/30 05:25:38;;;;;;;10.10;3.72;;;;;;;;;;4989207;28;20065;-86
2021/03/30 05:28:23;;;;;;;12.48;4.68;;;;;;;;;;5011280;28;20625;-85
2021/03/30 05:31:08;;;;;;;7.82;3.78;;;;;;;;;;4997913;28;20069;-86
2021/03/30 05:33:56;;;;;;;13.15;4.93;;;;;;;;;;4987864;28;20611;-85
2021/03/30 05:36:42;;;;;;;9.38;4.20;;;;;;;;;;5002266;28;20022;-86
2021/03/30 05:39:27;;;;;;;14.85;6.10;;;;;;;;;;4992661;28;20026;-87
2021/03/30 05:42:13;;;;;;;13.63;4.50;;;;;;;;;;5001310;28;20026;-83
2021/03/30 05:44:59;;;;;;;8.48;4.05;;;;;;;;;;4985034;28;20023;-82
2021/03/30 05:47:44;;;;;;;15.18;4.65;;;;;;;;;;4996329;28;20026;-83
2021/03/30 05:50:34;;;;;;;11.30;4.72;;;;;;;;;;4991595;28;20064;-85
2021/03/30 05:53:22;;;;;;;12.75;4.93;;;;;;;;;;4992497;28;20034;-86
2021/03/30 05:56:07;;;;;;;13.80;5.15;;;;;;;;;;4997161;28;20441;-85
2021/03/30 05:58:56;;;;;;;12.45;4.07;;;;;;;;;;4982310;28;20050;-86
2021/03/30 06:01:41;;;;;;;10.60;4.40;;;;;;;;;;4973367;28;20479;-86
2021/03/30 06:04:27;;;;;;;10.05;4.18;;;;;;;;;;4986866;28;20037;-84
2021/03/30 06:07:12;;;;;;;14.18;5.43;;;;;;;;;;4990750;28;20485;-83
2021/03/30 06:09:58;;;;;;;10.82;5.05;;;;;;;;;;4985629;28;20038;-83
2021/03/30 06:12:47;;;;;;;13.32;4.68;;;;;;;;;;4985518;28;20030;-83
2021/03/30 06:15:33;;;;;;;15.07;4.65;;;;;;;;;;4988108;28;20034;-82
2021/03/30 06:18:19;;;;;;;16.02;5.22;;;;;;;;;;4982474;28;20071;-82
2021/03/30 06:21:13;;;;;;;12.63;4.55;;;;;;;;;;4985123;28;20057;-81
2021/03/30 06:23:59;;;;;;;11.63;5.68;;;;;;;;;;5002256;28;20026;-83
2021/03/30 06:26:44;;;;;;;15.55;5.68;;;;;;;;;;4998380;28;20026;-82
2021/03/30 06:29:36;;;;;;;14.93;7.35;;;;;;;;;;4988392;28;20030;-83
2021/03/30 06:32:23;;;;;;;21.35;10.43;;;;;;;;;;4988791;28;20026;-85
2021/03/30 06:35:10;;;;;;;14.25;5.80;;;;;;;;;;5002348;28;20037;-84
2021/03/30 06:37:56;;;;;;;17.35;5.72;;;;;;;;;;4986436;28;20034;-85
2021/03/30 06:40:43;;;;;;;16.70;5.43;;;;;;;;;;4990813;28;20054;-86
2021/03/30 06:46:32;;;;;;;13.20;6.53;;;;;;;;;;4992046;28;20034;-86
2021/03/30 06:49:18;;;;;;;18.98;6.45;;;;;;;;;;4991373;28;20388;-86
2021/03/30 06:52:14;;;;;;;17.65;6.10;;;;;;;;;;4987808;28;20392;-85
2021/03/30 06:55:07;;;;;;;14.75;5.97;;;;;;;;;;4988802;28;20384;-83
2021/03/30 06:57:57;;;;;;;25.60;7.78;;;;;;;;;;4980325;28;20293;-83
2021/03/30 07:00:43;;;;;;;26.25;7.32;;;;;;;;;;5002066;28;20034;-84
2021/03/30 07:03:29;;;;;;;18.23;6.90;;;;;;;;;;4985239;28;20062;-83
2021/03/30 07:06:14;;;;;;;17.33;5.65;;;;;;;;;;4986178;28;20448;-83
2021/03/30 07:08:59;;;;;;;16.10;6.03;;;;;;;;;;4982648;28;20022;-82
2021/03/30 07:11:45;;;;;;;30.92;16.85;;;;;;;;;;4989141;28;20120;-82
2021/03/30 07:14:31;;;;;;;18.65;8.98;;;;;;;;;;4998519;28;20484;-83
2021/03/30 07:17:31;;;;;;;15.02;6.18;;;;;;;;;;4995588;28;20057;-84
2021/03/30 07:20:17;;;;;;;20.65;6.05;;;;;;;;;;4994025;28;20073;-84
2021/03/30 07:23:04;;;;;;;15.45;5.47;;;;;;;;;;4997851;28;20529;-85
2021/03/30 07:25:56;;;;;;;14.45;6.40;;;;;;;;;;4992606;28;20029;-83
2021/03/30 07:28:49;;;;;;;16.83;5.50;;;;;;;;;;4989456;28;20137;-83
2021/03/30 07:31:34;;;;;;;12.55;5.53;;;;;;;;;;4987742;28;20022;-84
2021/03/30 07:34:32;;;;;;;15.70;5.80;;;;;;;;;;4982617;28;20026;-84
2021/03/30 07:37:21;;;;;;;13.73;5.55;;;;;;;;;;4991346;28;20061;-83
2021/03/30 07:40:08;;;;;;;14.27;5.50;;;;;;;;;;4981259;28;20108;-84
2021/03/30 07:42:56;;;;;;;10.82;5.32;;;;;;;;;;4992550;28;20030;-85
2021/03/30 07:45:43;;;;;;;10.38;4.68;;;;;;;;;;4986099;28;20101;-83
2021/03/30 07:48:30;;;;;;;19.65;5.72;;;;;;;;;;4992902;28;20029;-83
2021/03/30 07:51:22;;;;;;;13.30;4.68;;;;;;;;;;4996760;28;20026;-83
2021/03/30 07:54:18;;;;;;;16.80;4.78;;;;;;;;;;4983524;28;20106;-82
2021/03/30 07:57:03;;;;;;;14.73;5.00;;;;;;;;;;4984114;28;20058;-83
2021/03/30 07:59:49;;;;;;;15.38;5.13;;;;;;;;;;4999363;28;20121;-85
2021/03/30 08:02:34;;;;;;;15.52;5.38;;;;;;;;;;4979514;28;20034;-83
2021/03/30 08:05:25;;;;;;;19.77;5.25;;;;;;;;;;4983361;28;20451;-81
2021/03/30 08:08:29;;;;;;;11.25;4.93;;;;;;;;;;5000076;28;20026;-82
2021/03/30 08:11:15;;;;;;;10.45;5.13;;;;;;;;;;4983125;28;20042;-82
2021/03/30 08:14:00;;;;;;;13.18;6.85;;;;;;;;;;4997889;28;20030;-82
2021/03/30 08:16:47;;;;;;;19.90;10.32;;;;;;;;;;4983978;28;20073;-83
2021/03/30 08:19:35;;;;;;;10.95;5.03;;;;;;;;;;4983365;28;20034;-83
2021/03/30 08:22:20;;;;;;;12.23;5.10;;;;;;;;;;4974803;28;20465;-84
2021/03/30 08:25:06;;;;;;;10.07;5.10;;;;;;;;;;4988826;28;20096;-83
2021/03/30 08:27:51;;;;;;;13.20;5.35;;;;;;;;;;4996722;28;20125;-83
2021/03/30 08:30:37;;;;;;;10.82;5.30;;;;;;;;;;4992078;28;20052;-83
2021/03/30 08:33:23;;;;;;;13.65;6.20;;;;;;;;;;5002120;28;20026;-84
2021/03/30 08:36:15;;;;;;;8.30;5.22;;;;;;;;;;4988053;28;20073;-83
2021/03/30 08:39:05;;;;;;;10.15;4.80;;;;;;;;;;4987549;28;20034;-84
2021/03/30 08:41:51;;;;;;;15.68;5.55;;;;;;;;;;4987065;28;20053;-85
2021/03/30 08:44:45;;;;;;;16.95;6.30;;;;;;;;;;4988880;28;20432;-86
2021/03/30 08:47:39;;;;;;;17.58;6.50;;;;;;;;;;4999936;28;20034;-84
2021/03/30 08:50:26;;;;;;;16.80;6.28;;;;;;;;;;5002071;28;20034;-84
2021/03/30 08:53:19;;;;;;;15.30;5.50;;;;;;;;;;4992330;28;20030;-83
2021/03/30 08:56:09;;;;;;;17.48;7.13;;;;;;;;;;4974197;28;20033;-83
2021/03/30 08:58:56;;;;;;;14.15;6.43;;;;;;;;;;4988657;28;20125;-84
2021/03/30 09:01:44;;;;;;;13.77;6.30;;;;;;;;;;5004637;28;20022;-85
2021/03/30 09:04:30;;;;;;;24.80;19.88;;;;;;;;;;4985035;28;20085;-83
2021/03/30 09:07:16;;;;;;;15.85;8.57;;;;;;;;;;5006523;28;20399;-83
2021/03/30 09:10:05;;;;;;;15.63;7.63;;;;;;;;;;4987014;28;20056;-84
2021/03/30 09:12:50;;;;;;;13.93;6.72;;;;;;;;;;4990573;28;20484;-82
2021/03/30 09:15:36;;;;;;;15.02;6.22;;;;;;;;;;5001775;28;20030;-84
2021/03/30 09:18:27;;;;;;;19.17;6.60;;;;;;;;;;5003465;28;20043;-85
2021/03/30 09:21:18;;;;;;;16.15;6.93;;;;;;;;;;5242098;23;21216;-84
2021/03/30 09:24:11;;;;;;;14.98;6.72;;;;;;;;;;5011968;28;20480;-85
2021/03/30 09:27:08;;;;;;;14.75;6.60;;;;;;;;;;5025148;28;20427;-85
2021/03/30 09:30:05;;;;;;;10.57;6.30;;;;;;;;;;5018645;28;20018;-84
2021/03/30 09:32:51;;;;;;;14.68;6.53;;;;;;;;;;5021993;28;20068;-84
2021/03/30 09:35:58;;;;;;;21.35;6.70;;;;;;;;;;5001715;28;20069;-84
2021/03/30 09:38:52;;;;;;;13.43;7.32;;;;;;;;;;5006035;28;20483;-84
2021/03/30 09:41:45;;;;;;;18.02;6.32;;;;;;;;;;5003554;28;20030;-87
2021/03/30 09:44:48;;;;;;;15.27;6.78;;;;;;;;;;5006170;28;20068;-85
2021/03/30 09:47:36;;;;;;;17.60;6.55;;;;;;;;;;5007448;28;20108;-84
2021/03/30 09:50:23;;;;;;;16.27;6.53;;;;;;;;;;5020391;28;20025;-85
2021/03/30 09:53:11;;;;;;;8.98;5.88;;;;;;;;;;5020174;28;20116;-83
2021/03/30 09:56:14;;;;;;;15.93;6.70;;;;;;;;;;5011779;28;20014;-83
2021/03/30 09:59:02;;;;;;;16.95;6.60;;;;;;;;;;5014102;28;20068;-83
2021/03/30 10:01:50;;;;;;;16.63;6.70;;;;;;;;;;5004060;28;20088;-85
2021/03/30 10:04:38;;;;;;;;;;;;;;;;;;5023891;28;20419;-84
2021/03/30 10:07:27;;;;;;;16.60;6.30;;;;;;;;;;5013731;28;19909;-83
2021/03/30 10:10:13;;;;;;;15.32;6.22;;;;;;;;;;5002355;28;20223;-82
2021/03/30 10:13:00;;;;;;;20.25;12.95;;;;;;;;;;5004755;28;20049;-82
2021/03/30 10:15:45;;;;;;;16.48;6.65;;;;;;;;;;5004426;28;20087;-83
2021/03/30 10:18:30;;;;;;;19.08;7.20;;;;;;;;;;5007489;28;20141;-83
2021/03/30 10:21:20;;;;;;;12.65;6.40;;;;;;;;;;5015408;28;20045;-81
2021/03/30 10:24:19;;;;;;;12.50;6.65;;;;;;;;;;4990687;28;20047;-85
2021/03/30 10:27:14;;;;;;;14.15;6.70;;;;;;;;;;5014628;28;20026;-84
2021/03/30 10:30:00;;;;;;;13.25;7.57;;;;;;;;;;5004896;28;20064;-83
2021/03/30 10:32:52;;;;;;;20.80;7.28;;;;;;;;;;4995384;28;20025;-84
2021/03/30 10:36:09;;;;;;;14.52;6.88;;;;;;;;;;5001889;28;20112;-89
2021/03/30 10:39:13;;;;;;;14.15;7.20;;;;;;;;;;5007153;28;20075;-86
2021/03/30 10:42:00;;;;;;;16.67;7.20;;;;;;;;;;5001013;28;20021;-87
2021/03/30 10:44:55;;;;;;;12.45;6.25;;;;;;;;;;5002854;28;20121;-87
2021/03/30 10:47:42;;;;;;;14.88;6.75;;;;;;;;;;5003414;28;20476;-86
2021/03/30 10:50:27;;;;;;;21.13;16.33;;;;;;;;;;5016068;28;20045;-87
2021/03/30 10:56:53;;;;;;;10.18;5.65;;;;;;;;;;4977303;28;20038;-86
2021/03/30 10:59:51;;;;;;;10.73;6.07;;;;;;;;;;4900830;29;20668;-92
2021/03/30 11:02:40;;;;;;;11.88;7.18;;;;;;;;;;5014753;28;20042;-86
2021/03/30 11:05:45;;;;;;;13.15;6.45;;;;;;;;;;5016764;28;20090;-89
2021/03/30 11:08:31;;;;;;;11.70;6.18;;;;;;;;;;5013591;28;20080;-87
2021/03/30 11:11:18;;;;;;;8.48;5.75;;;;;;;;;;5019843;28;20465;-87
2021/03/30 11:17:08;;;;;;;9.18;5.53;;;;;;;;;;4998766;28;19918;-84
2021/03/30 11:19:53;;;;;;;9.38;5.00;;;;;;;;;;5021105;28;20528;-86
2021/03/30 11:22:46;;;;;;;10.65;4.93;;;;;;;;;;5003741;28;20512;-84
2021/03/30 11:25:31;;;;;;;7.90;5.18;;;;;;;;;;5005443;28;20034;-84
2021/03/30 11:28:16;;;;;;;7.40;5.43;;;;;;;;;;5002368;28;20524;-82
2021/03/30 11:31:04;;;;;;;11.93;4.85;;;;;;;;;;4996129;28;20364;-83
2021/03/30 11:33:58;;;;;;;8.43;4.40;;;;;;;;;;5001604;28;20026;-82
2021/03/30 11:36:45;;;;;;;7.63;4.82;;;;;;;;;;5002099;28;20030;-83
2021/03/30 11:39:30;;;;;;;6.43;4.15;;;;;;;;;;5003345;28;20038;-82
2021/03/30 11:42:16;;;;;;;5.50;4.32;;;;;;;;;;5003059;28;20034;-83
2021/03/30 11:45:02;;;;;;;8.00;4.35;;;;;;;;;;5018168;28;20075;-82
2021/03/30 11:47:47;;;;;;;11.43;4.05;;;;;;;;;;5011043;28;20104;-86
2021/03/30 11:51:02;;;;;;;11.82;4.82;;;;;;;;;;5015609;28;20030;-86
2021/03/30 11:53:56;;;;;;;8.68;4.53;;;;;;;;;;4974608;28;20037;-86
2021/03/30 11:56:56;;;;;;;8.30;4.40;;;;;;;;;;5004682;28;20026;-85
2021/03/30 11:59:58;;;;;;;11.15;3.88;;;;;;;;;;4999353;28;20529;-86
2021/03/30 12:02:49;;;;;;;7.57;3.85;;;;;;;;;;5008094;28;20026;-87
2021/03/30 12:06:06;;;;;;;8.50;4.63;;;;;;;;;;5006693;28;20033;-84
2021/03/30 12:08:59;;;;;;;8.30;3.45;;;;;;;;;;5012306;28;20357;-86
2021/03/30 12:12:15;;;;;;;;;;;;;;;;;;;;;
2021/03/30 12:15:28;;;;;;;10.80;4.50;;;;;;;;;;4998023;28;20476;-85
2021/03/30 12:18:22;;;;;;;11.35;4.25;;;;;;;;;;5037838;28;20006;-87
2021/03/30 12:21:36;;;;;;;;;;;;;;;;;;;;;
2021/03/30 12:24:39;;;;;;;6.03;3.75;;;;;;;;;;5021274;28;20053;-86
2021/03/30 12:28:03;;;;;;;8.50;3.47;;;;;;;;;;5004404;28;20062;-84
2021/03/30 12:31:17;;;;;;;6.65;3.10;;;;;;;;;;4998628;28;20505;-86
2021/03/30 12:34:37;;;;;;;9.57;4.35;;;;;;;;;;4935936;28;20066;-87
2021/03/30 12:37:36;;;;;;;8.45;3.15;;;;;;;;;;4949021;28;20128;-86
2021/03/30 12:44:03;;;;;;;6.57;3.78;;;;;;;;;;5024844;28;20040;-89
2021/03/30 12:50:10;;;;;;;6.22;3.38;;;;;;;;;;5022098;28;20506;-86
2021/03/30 12:53:25;;;;;;;8.10;3.65;;;;;;;;;;5002553;28;20037;-87
2021/03/30 13:13:57;;;;;;;6.90;3.22;;;;;;;;;;4950976;28;20170;-87
2021/03/30 13:17:04;;;;;;;4.32;3.00;;;;;;;;;;4928593;29;20034;-86
2021/03/30 13:19:56;;;;;;;7.63;3.13;;;;;;;;;;4964414;28;20489;-88
2021/03/30 13:22:45;;;;;;;6.22;2.97;;;;;;;;;;4956347;28;20043;-85
2021/03/30 13:28:59;;;;;;;8.32;3.88;;;;;;;;;;4984223;28;19910;-88
2021/03/30 13:35:31;;;;;;;13.55;7.03;;;;;;;;;;4889429;29;20060;-88
2021/03/30 13:52:10;;;;;;;8.15;4.28;;;;;;;;;;4904709;29;20206;-90
2021/03/30 13:54:58;;;;;;;12.65;4.15;;;;;;;;;;4874549;29;20049;-89
2021/03/30 14:01:17;;;;;;;13.10;6.43;;;;;;;;;;4873103;29;20054;-89
2021/03/30 14:08:09;;;;;;;11.02;4.70;;;;;;;;;;4868737;29;20033;-89
2021/03/30 14:11:32;;;;;;;;;;;;;;;;;;;;;
2021/03/30 14:14:25;;;;;;;9.80;4.25;;;;;;;;;;4922581;29;20035;-85
2021/03/30 14:21:08;;;;;;;6.93;3.25;;;;;;;;;;4927770;29;20506;-86
2021/03/30 14:33:39;;;;;;;9.52;5.28;;;;;;;;;;4933368;29;20035;-92
2021/03/30 14:57:00;;;;;;;11.68;4.07;;;;;;;;;;4998089;28;20041;-92
2021/03/30 15:00:00;;;;;;;7.65;3.22;;;;;;;;;;4973093;28;20386;-86
2021/03/30 15:05:34;;;;;;;6.80;3.60;;;;;;;;;;4980830;28;20112;-85
2021/03/30 15:08:19;;;;;;;5.97;3.08;;;;;;;;;;4972085;28;20041;-89
2021/03/30 15:11:05;;;;;;;8.40;3.67;;;;;;;;;;4984256;28;20037;-85
2021/03/30 15:13:50;;;;;;;8.48;3.92;;;;;;;;;;4980079;28;20061;-85
2021/03/30 15:16:35;;;;;;;27.75;7.85;;;;;;;;;;4965023;28;20029;-85
2021/03/30 15:19:21;;;;;;;10.88;4.38;;;;;;;;;;4983141;28;20085;-85
2021/03/30 15:22:06;;;;;;;7.88;3.65;;;;;;;;;;4982212;28;20105;-83
2021/03/30 15:24:52;;;;;;;9.00;3.80;;;;;;;;;;5011713;28;20088;-84
2021/03/30 15:27:37;;;;;;;7.47;4.20;;;;;;;;;;4997394;28;20021;-84
2021/03/30 15:30:23;;;;;;;5.85;3.80;;;;;;;;;;5010110;28;20133;-84
2021/03/30 15:33:15;;;;;;;9.52;4.10;;;;;;;;;;5012253;28;20112;-84
2021/03/30 15:36:07;;;;;;;6.45;3.80;;;;;;;;;;5015750;28;20026;-84
2021/03/30 15:38:56;;;;;;;7.97;4.18;;;;;;;;;;5023096;28;20056;-84
2021/03/30 15:41:41;;;;;;;5.60;3.85;;;;;;;;;;5004548;28;20042;-83
2021/03/30 15:44:46;;;;;;;5.45;3.75;;;;;;;;;;5014911;28;20034;-84
2021/03/30 15:47:32;;;;;;;9.80;4.25;;;;;;;;;;5014157;28;20018;-82
2021/03/30 15:50:17;;;;;;;7.07;3.35;;;;;;;;;;5000478;28;20026;-83
2021/03/30 15:53:03;;;;;;;7.03;3.00;;;;;;;;;;4997735;28;20026;-83
2021/03/30 15:55:48;;;;;;;15.35;11.52;;;;;;;;;;5015825;28;20044;-84
2021/03/30 15:58:36;;;;;;;7.78;4.35;;;;;;;;;;5006498;28;20029;-84
2021/03/30 16:01:21;;;;;;;8.90;4.20;;;;;;;;;;5020407;28;20030;-85
2021/03/30 16:04:07;;;;;;;6.75;3.60;;;;;;;;;;5017648;28;20136;-84
2021/03/30 16:06:52;;;;;;;6.28;3.28;;;;;;;;;;5005576;28;20033;-84
2021/03/30 16:09:37;;;;;;;8.18;3.22;;;;;;;;;;5004897;28;20037;-83
2021/03/30 16:12:23;;;;;;;8.65;3.97;;;;;;;;;;4996164;28;20033;-78
2021/03/30 16:15:15;;;;;;;11.70;3.83;;;;;;;;;;5006610;28;20384;-85
2021/03/30 16:18:06;;;;;;;8.30;4.20;;;;;;;;;;5010524;28;20312;-91
2021/03/30 16:20:51;;;;;;;6.15;4.00;;;;;;;;;;5015325;28;20092;-88
2021/03/30 16:23:38;;;;;;;7.18;4.35;;;;;;;;;;5014283;28;20053;-88
2021/03/30 16:26:24;;;;;;;7.68;4.35;;;;;;;;;;5022885;28;20742;-89
2021/03/30 16:29:09;;;;;;;6.93;4.32;;;;;;;;;;5014777;28;20071;-90
2021/03/30 16:31:54;;;;;;;12.27;4.85;;;;;;;;;;5024155;28;20020;-87
2021/03/30 16:34:40;;;;;;;8.90;4.43;;;;;;;;;;5021383;28;20021;-89
2021/03/30 16:37:25;;;;;;;6.88;4.00;;;;;;;;;;4999296;28;20524;-90
2021/03/30 16:40:11;;;;;;;8.68;4.30;;;;;;;;;;5024519;28;20551;-88
2021/03/30 16:42:56;;;;;;;10.85;7.32;;;;;;;;;;5001832;28;20079;-90
2021/03/30 16:45:41;;;;;;;15.40;5.70;;;;;;;;;;5016479;28;20037;-91
2021/03/30 16:48:27;;;;;;;10.60;3.83;;;;;;;;;;5018948;28;20093;-90
2021/03/30 16:51:19;;;;;;;11.63;7.15;;;;;;;;;;5029128;28;20544;-92
2021/03/30 16:57:34;;;;;;;16.80;10.15;;;;;;;;;;5037640;28;20033;-91
2021/03/30 17:00:20;;;;;;;10.48;6.18;;;;;;;;;;5022955;28;20022;-86
2021/03/30 17:03:25;;;;;;;8.73;3.92;;;;;;;;;;5010926;28;20021;-83
2021/03/30 17:06:14;;;;;;;12.85;6.25;;;;;;;;;;4992907;28;20080;-86
2021/03/30 17:08:59;;;;;;;22.17;14.27;;;;;;;;;;5010250;28;20073;-86
2021/03/30 17:11:45;;;;;;;15.18;5.93;;;;;;;;;;5004954;28;20068;-85
2021/03/30 17:14:30;;;;;;;17.42;8.30;;;;;;;;;;5017093;28;20018;-86
2021/03/30 17:17:15;;;;;;;11.40;6.10;;;;;;;;;;5025382;28;20066;-84
2021/03/30 17:20:00;;;;;;;13.40;4.72;;;;;;;;;;5003938;28;20021;-83
2021/03/30 17:22:46;;;;;;;8.88;3.28;;;;;;;;;;5004970;28;20763;-85
2021/03/30 17:25:31;;;;;;;13.65;3.80;;;;;;;;;;4999026;28;20081;-83
2021/03/30 17:28:16;;;;;;;7.15;3.22;;;;;;;;;;5007603;28;20064;-83
2021/03/30 17:31:02;;;;;;;11.27;4.07;;;;;;;;;;5017157;28;20033;-80
2021/03/30 17:33:47;;;;;;;11.60;3.28;;;;;;;;;;5008219;28;20464;-81
2021/03/30 17:36:33;;;;;;;13.82;3.72;;;;;;;;;;5017498;28;20128;-81
2021/03/30 17:39:20;;;;;;;7.43;3.40;;;;;;;;;;5021132;28;20033;-83
2021/03/30 17:42:08;;;;;;;8.80;3.38;;;;;;;;;;5007972;28;20105;-84
2021/03/30 17:44:57;;;;;;;32.28;22.13;;;;;;;;;;5016998;28;20018;-83
2021/03/30 17:47:42;;;;;;;22.83;14.13;;;;;;;;;;4989738;28;20023;-83
2021/03/30 17:50:27;;;;;;;16.75;9.48;;;;;;;;;;5013807;28;20068;-83
2021/03/30 17:53:13;;;;;;;21.25;10.88;;;;;;;;;;5014612;28;20117;-83
2021/03/30 17:56:01;;;;;;;37.63;24.40;;;;;;;;;;5001299;28;20022;-83
2021/03/30 17:58:46;;;;;;;31.60;15.10;;;;;;;;;;5013578;28;20361;-82
2021/03/30 18:01:43;;;;;;;21.85;11.73;;;;;;;;;;5002461;28;20113;-82
2021/03/30 18:04:35;;;;;;;19.48;9.70;;;;;;;;;;5017783;28;20029;-82
2021/03/30 18:07:20;;;;;;;20.40;4.28;;;;;;;;;;5011099;28;20379;-83
2021/03/30 18:10:08;;;;;;;19.30;6.25;;;;;;;;;;5022179;28;20051;-84
2021/03/30 18:12:53;;;;;;;18.52;8.25;;;;;;;;;;5018700;28;20021;-84
2021/03/30 18:15:49;;;;;;;34.30;27.30;;;;;;;;;;5058553;28;20961;-81
2021/03/30 18:18:34;;;;;;;30.25;17.92;;;;;;;;;;5040796;28;20034;-81
2021/03/30 18:21:19;;;;;;;47.00;36.13;;;;;;;;;;5042325;28;20033;-81
2021/03/30 18:24:05;;;;;;;206.75;172.70;;;;;;;;;;5041100;28;20033;-81
2021/03/30 18:26:50;;;;;;;52.53;33.35;;;;;;;;;;5055566;28;20072;-81
2021/03/30 18:29:36;;;;;;;23.15;13.35;;;;;;;;;;5040295;28;20031;-83